KSDY/SDY METAR and TAF weather

Enter ICAO airport designator
Station Type Date Time Source
KSDY METAR 2020/04/03 05:56 UTC NOAA

KSDY 030556Z AUTO 29008KT 10SM CLR M12/M15 A3032 RMK AO2 SLP659 T11221150 11067 21122 55002 FZRANO


Station Type Date Time Source
KSDY Decoded METAR 2020/04/03 05:56 UTC NOAA

Sidney-Richland, MT, United States (KSDY) 47-42N 104-12W
Apr 03, 2020 - 01:56 AM EDT / 2020.04.03 0556 UTC
Wind: from the WNW (290 degrees) at 9 MPH (8 KT):0
Visibility: 10 mile(s):0
Sky conditions: clear
Temperature: 10.0 F (-12.2 C)
Windchill: -2 F (-19 C):1
Dew Point: 5.0 F (-15.0 C)
Relative Humidity: 79%
Pressure (altimeter): 30.32 in. Hg (1026 hPa)
Pressure tendency: 0.01 inches (0.2 hPa) lower than three hours ago
ob: KSDY 030556Z AUTO 29008KT 10SM CLR M12/M15 A3032 RMK AO2 SLP659 T11221150 11067 21122 55002 FZRANO
cycle: 6

Station Type Date Time Source
KSDY TAF 2020/04/03 06:22 UTC NOAA

TAF KSDY 030520Z 0306/0406 VRB06KT P6SM FEW100

Example: see airport list